Terminal Aerodrome Forecast
Issued by NWS

Home | Current Version | Previous Version | Text Only | Print | Product List | Glossary On
Versions: 1 2 3 4 5 6 7 8 9 10 11 12 13
428
FTUS43 KEAX 142333
TAFSTJ
TAF
KSTJ 142333Z 1500/1524 30004KT P6SM OVC050
      TEMPO 1509/1513 OVC025
     FM151300 26011KT P6SM SCT050 BKN120=

USA.gov is the U.S. government's official web portal to all federal, state and local government web resources and services.